createdAt,value
2022-08-29T00:00:20.689Z,98454.25
2022-08-29T00:02:50.613Z,98451.97
2022-08-29T00:05:20.233Z,98449.03
2022-08-29T00:07:51.831Z,98449.03
2022-08-29T00:10:20.317Z,98448.75
2022-08-29T00:12:46.879Z,98439.09
2022-08-29T00:15:14.691Z,98438.59
2022-08-29T00:17:41.760Z,98441.63
2022-08-29T00:20:11.034Z,98447.69
2022-08-29T00:22:37.541Z,98450.72
2022-08-29T00:25:06.327Z,98443.13
2022-08-29T00:27:33.493Z,98448.72
2022-08-29T00:30:00.898Z,98446.34
2022-08-29T00:32:34.890Z,98451.47
2022-08-29T00:35:03.338Z,98447.81
2022-08-29T00:37:29.782Z,98438.19
2022-08-29T00:39:57.392Z,98459.00
2022-08-29T00:42:24.694Z,98452.16
2022-08-29T00:44:51.749Z,98457.09
2022-08-29T00:47:23.000Z,98433.53
2022-08-29T00:49:55.564Z,98449.00
2022-08-29T00:52:32.237Z,98455.31
2022-08-29T00:54:59.673Z,98452.25
2022-08-29T00:57:31.558Z,98455.66
2022-08-29T00:59:58.914Z,98454.09
2022-08-29T01:02:25.868Z,98451.56
2022-08-29T01:04:52.426Z,98451.56
2022-08-29T01:07:20.251Z,98452.09
2022-08-29T01:09:47.247Z,98454.34
2022-08-29T01:12:19.259Z,98463.78
2022-08-29T01:14:51.645Z,98455.31
2022-08-29T01:17:22.273Z,98459.09
2022-08-29T01:20:19.258Z,98466.41
2022-08-29T01:22:56.387Z,98461.69
2022-08-29T01:25:26.132Z,98461.59
2022-08-29T01:28:14.784Z,98461.84
2022-08-29T01:31:37.437Z,98463.63
2022-08-29T01:34:07.466Z,98459.72
2022-08-29T01:36:47.145Z,98461.94
2022-08-29T01:39:14.061Z,98463.78
2022-08-29T01:41:42.170Z,98467.97
2022-08-29T01:44:15.454Z,98474.94
2022-08-29T01:46:42.000Z,98465.41
2022-08-29T01:49:10.955Z,98472.50
2022-08-29T01:51:38.301Z,98469.31
2022-08-29T01:54:07.237Z,98464.19
2022-08-29T01:56:36.915Z,98469.09
2022-08-29T01:59:06.226Z,98474.78
2022-08-29T02:01:41.995Z,98476.47
2022-08-29T02:04:09.032Z,98466.16
2022-08-29T02:06:36.319Z,98468.63
2022-08-29T02:09:04.677Z,98475.19
2022-08-29T02:11:32.359Z,98470.75
2022-08-29T02:13:59.760Z,98480.66
2022-08-29T02:16:28.372Z,98456.97
2022-08-29T02:18:55.808Z,98478.69
2022-08-29T02:21:25.018Z,98483.00
2022-08-29T02:23:55.175Z,98475.81
2022-08-29T02:26:22.585Z,98474.97
2022-08-29T02:28:51.662Z,98482.13
2022-08-29T02:31:20.077Z,98482.25
2022-08-29T02:33:47.112Z,98483.75
2022-08-29T02:36:14.075Z,98483.63
2022-08-29T02:38:40.544Z,98476.78
2022-08-29T02:41:11.229Z,98482.75
2022-08-29T02:43:40.134Z,98483.47
2022-08-29T02:46:07.172Z,98479.03
2022-08-29T02:48:33.657Z,98482.53
2022-08-29T02:51:00.258Z,98482.97
2022-08-29T02:53:30.989Z,98481.13
2022-08-29T02:55:58.268Z,98489.16
2022-08-29T02:58:25.650Z,98493.34
2022-08-29T03:01:42.798Z,98487.63
2022-08-29T03:04:09.451Z,98487.75
2022-08-29T03:06:35.864Z,98492.88
2022-08-29T03:09:02.607Z,98491.25
2022-08-29T03:11:29.570Z,98483.22
2022-08-29T03:13:57.712Z,98490.44
2022-08-29T03:16:26.734Z,98489.84
2022-08-29T03:18:54.255Z,98479.28
2022-08-29T03:21:24.889Z,98486.03
2022-08-29T03:23:52.189Z,98469.34
2022-08-29T03:26:19.592Z,98471.69
2022-08-29T03:28:46.658Z,98472.41
2022-08-29T03:31:13.390Z,98464.13
2022-08-29T03:33:39.898Z,98468.91
2022-08-29T03:36:14.305Z,98468.78
2022-08-29T03:38:46.287Z,98473.31
2022-08-29T03:41:23.252Z,98471.13
2022-08-29T03:43:50.318Z,98461.03
2022-08-29T03:46:16.817Z,98472.44
2022-08-29T03:48:43.294Z,98461.97
2022-08-29T03:51:10.261Z,98470.56
2022-08-29T03:53:36.742Z,98459.06
2022-08-29T03:56:04.211Z,98451.66
2022-08-29T03:58:30.988Z,98453.88
2022-08-29T04:00:57.474Z,98462.47
2022-08-29T04:03:24.981Z,98460.59
2022-08-29T04:05:58.828Z,98461.16
2022-08-29T04:08:25.412Z,98462.22
2022-08-29T04:10:51.865Z,98457.22
2022-08-29T04:13:18.601Z,98452.22
2022-08-29T04:15:45.114Z,98465.94
2022-08-29T04:18:11.760Z,98465.38
2022-08-29T04:20:41.746Z,98469.78
2022-08-29T04:23:08.357Z,98476.88
2022-08-29T04:25:37.995Z,98475.97
2022-08-29T04:28:10.138Z,98479.69
2022-08-29T04:30:38.154Z,98477.91
2022-08-29T04:33:05.314Z,98475.59
2022-08-29T04:35:31.919Z,98478.47
2022-08-29T04:37:58.353Z,98479.88
2022-08-29T04:40:24.938Z,98484.41
2022-08-29T04:42:51.581Z,98470.69
2022-08-29T04:45:20.978Z,98478.00
2022-08-29T04:47:47.547Z,98474.06
2022-08-29T04:50:18.178Z,98481.63
2022-08-29T04:52:45.128Z,98485.47
2022-08-29T04:55:16.147Z,98491.38
2022-08-29T04:57:44.858Z,98486.81
2022-08-29T05:00:16.747Z,98485.97
2022-08-29T05:02:44.375Z,98487.66
2022-08-29T05:05:13.882Z,98477.31
2022-08-29T05:07:41.079Z,98483.38
2022-08-29T05:10:11.743Z,98495.16
2022-08-29T05:12:38.244Z,98493.31
2022-08-29T05:15:06.429Z,98497.00
2022-08-29T05:17:33.741Z,98494.72
2022-08-29T05:20:00.975Z,98495.41
2022-08-29T05:22:27.459Z,98497.50
2022-08-29T05:24:53.952Z,98494.13
2022-08-29T05:27:22.631Z,98493.44
2022-08-29T05:29:51.425Z,98496.94
2022-08-29T05:32:19.608Z,98488.91
2022-08-29T05:34:47.096Z,98494.31
2022-08-29T05:37:19.363Z,98487.63
2022-08-29T05:39:47.257Z,98492.75
2022-08-29T05:42:14.431Z,98498.13
2022-08-29T05:44:40.895Z,98498.41
2022-08-29T05:47:11.592Z,98502.31
2022-08-29T05:49:40.613Z,98498.63
2022-08-29T05:52:07.770Z,98496.25
2022-08-29T05:54:36.959Z,98508.16
2022-08-29T05:57:04.407Z,98501.78
2022-08-29T05:59:30.833Z,98507.13
2022-08-29T06:01:57.697Z,98505.91
2022-08-29T06:04:24.221Z,98509.63
2022-08-29T06:06:50.795Z,98527.06
2022-08-29T06:09:17.745Z,98512.91
2022-08-29T06:11:47.934Z,98523.28
2022-08-29T06:14:15.660Z,98506.31
2022-08-29T06:16:42.535Z,98505.50
2022-08-29T06:19:09.354Z,98507.69
2022-08-29T06:21:36.153Z,98512.00
2022-08-29T06:24:03.994Z,98504.94
2022-08-29T06:26:31.470Z,98501.63
2022-08-29T06:28:58.182Z,98497.19
2022-08-29T06:31:28.946Z,98515.16
2022-08-29T06:33:57.948Z,98514.22
2022-08-29T06:36:26.160Z,98514.13
2022-08-29T06:38:55.468Z,98513.16
2022-08-29T06:41:21.901Z,98514.13
2022-08-29T06:43:48.408Z,98514.50
2022-08-29T06:46:27.401Z,98515.72
2022-08-29T06:48:56.030Z,98514.13
2022-08-29T06:51:23.537Z,98509.72
2022-08-29T06:53:50.300Z,98514.63
2022-08-29T06:56:17.525Z,98517.94
2022-08-29T06:58:45.188Z,98521.88
2022-08-29T07:01:16.714Z,98529.78
2022-08-29T07:03:43.348Z,98517.91
2022-08-29T07:06:10.516Z,98522.28
2022-08-29T07:08:40.902Z,98527.16
2022-08-29T07:11:10.992Z,98517.44
2022-08-29T07:13:37.531Z,98518.50
2022-08-29T07:16:08.425Z,98485.50
2022-08-29T07:18:35.580Z,98523.34
2022-08-29T07:21:09.162Z,98524.34
2022-08-29T07:23:36.268Z,98518.47
2022-08-29T07:26:20.869Z,98527.09
2022-08-29T07:28:52.299Z,98525.50
2022-08-29T07:31:18.970Z,98530.09
2022-08-29T07:33:45.651Z,98519.84
2022-08-29T07:36:12.784Z,98524.44
2022-08-29T07:38:39.516Z,98530.41
2022-08-29T07:41:14.281Z,98530.91
2022-08-29T07:43:42.828Z,98526.63
2022-08-29T07:46:14.948Z,98526.06
2022-08-29T07:48:42.628Z,98522.25
2022-08-29T07:51:14.830Z,98533.34
2022-08-29T07:53:42.032Z,98524.91
2022-08-29T07:56:12.256Z,98529.47
2022-08-29T07:58:39.536Z,98525.72
2022-08-29T08:01:06.761Z,98529.75
2022-08-29T08:03:34.355Z,98520.53
2022-08-29T08:06:03.896Z,98523.16
2022-08-29T08:08:33.607Z,98526.78
2022-08-29T08:11:00.096Z,98522.53
2022-08-29T08:13:27.965Z,98518.19
2022-08-29T08:15:55.443Z,98518.69
2022-08-29T08:18:22.456Z,98517.88
2022-08-29T08:20:48.915Z,98513.53
2022-08-29T08:23:16.893Z,98517.16
2022-08-29T08:25:44.754Z,98529.88
2022-08-29T08:28:15.401Z,98528.00
2022-08-29T08:30:42.169Z,98529.63
2022-08-29T08:33:09.929Z,98532.50
2022-08-29T08:35:41.928Z,98545.97
2022-08-29T08:38:09.145Z,98545.94
2022-08-29T08:40:43.850Z,98554.13
2022-08-29T08:43:19.240Z,98550.13
2022-08-29T08:45:53.869Z,98552.06
2022-08-29T08:48:22.721Z,98545.53
2022-08-29T08:51:03.427Z,98545.81
2022-08-29T08:53:39.833Z,98546.56
2022-08-29T08:56:19.775Z,98550.97
2022-08-29T08:58:54.615Z,98550.91
2022-08-29T09:01:29.176Z,98544.97
2022-08-29T09:04:14.366Z,98554.78
2022-08-29T09:06:53.322Z,98555.38
2022-08-29T09:09:44.336Z,98553.28
2022-08-29T09:12:30.091Z,98558.03
2022-08-29T09:15:22.574Z,98552.09
2022-08-29T09:18:13.629Z,98553.84
2022-08-29T09:20:41.396Z,98552.88
2022-08-29T09:23:19.259Z,98551.13
2022-08-29T09:25:47.223Z,98550.44
2022-08-29T09:28:13.774Z,98544.13
2022-08-29T09:30:42.962Z,98551.72
2022-08-29T09:33:13.016Z,98551.94
2022-08-29T09:35:44.584Z,98557.41
2022-08-29T09:38:17.000Z,98556.69
2022-08-29T09:40:49.388Z,98551.66
2022-08-29T09:43:39.330Z,98522.97
2022-08-29T09:46:18.981Z,98550.38
2022-08-29T09:48:48.794Z,98545.84
2022-08-29T09:51:23.387Z,98552.34
2022-08-29T09:53:52.075Z,98554.88
2022-08-29T09:56:27.887Z,98541.44
2022-08-29T09:59:03.629Z,98538.69
2022-08-29T10:01:32.315Z,98549.69
2022-08-29T10:04:06.550Z,98535.81
2022-08-29T10:06:44.333Z,98531.88
2022-08-29T10:09:24.778Z,98534.13
2022-08-29T10:12:03.357Z,98531.13
2022-08-29T10:14:36.038Z,98534.59
2022-08-29T10:17:45.328Z,98524.97
2022-08-29T10:20:11.976Z,98521.25
2022-08-29T10:22:44.558Z,98522.34
2022-08-29T10:25:25.595Z,98520.84
2022-08-29T10:28:24.220Z,98517.91
2022-08-29T10:31:09.172Z,98521.31
2022-08-29T10:34:18.193Z,98515.06
2022-08-29T10:36:54.523Z,98519.44
2022-08-29T10:39:47.714Z,98515.44
2022-08-29T10:42:19.270Z,98511.31
2022-08-29T10:45:22.744Z,98512.84
2022-08-29T10:48:00.760Z,98495.59
2022-08-29T10:51:06.567Z,98518.34
2022-08-29T10:53:43.723Z,98502.72
2022-08-29T10:56:22.779Z,98506.31
2022-08-29T10:59:14.104Z,98507.28
2022-08-29T11:01:46.983Z,98501.06
2022-08-29T11:04:22.471Z,98504.47
2022-08-29T11:07:06.274Z,98487.91
2022-08-29T11:09:42.069Z,98491.13
2022-08-29T11:12:30.342Z,98487.53
2022-08-29T11:15:08.012Z,98489.06
2022-08-29T11:17:40.760Z,98481.94
2022-08-29T11:20:19.570Z,98487.75
2022-08-29T11:22:54.845Z,98481.41
2022-08-29T11:25:21.875Z,98480.97
2022-08-29T11:28:00.412Z,98481.78
2022-08-29T11:30:53.154Z,98472.31
2022-08-29T11:33:46.165Z,98470.97
2022-08-29T11:36:43.060Z,98466.66
2022-08-29T11:39:34.070Z,98463.47
2022-08-29T11:42:06.272Z,98465.44
2022-08-29T11:44:40.996Z,98463.63
2022-08-29T11:47:40.788Z,98465.94
2022-08-29T11:50:16.959Z,98466.91
2022-08-29T11:53:05.739Z,98446.63
2022-08-29T11:55:40.190Z,98454.72
2022-08-29T11:58:15.606Z,98436.78
2022-08-29T12:00:56.376Z,98440.72
2022-08-29T12:03:35.493Z,98438.44
2022-08-29T12:06:17.991Z,98432.09
2022-08-29T12:09:13.797Z,98442.19
2022-08-29T12:11:59.171Z,98437.03
2022-08-29T12:14:37.509Z,98431.03
2022-08-29T12:17:08.752Z,98421.09
2022-08-29T12:19:54.865Z,98430.66
2022-08-29T12:25:28.103Z,98424.13
2022-08-29T12:28:17.896Z,98423.97
2022-08-29T12:30:48.827Z,98419.63
2022-08-29T12:33:54.853Z,98417.16
2022-08-29T12:36:30.164Z,98415.41
2022-08-29T12:39:21.392Z,98401.56
2022-08-29T12:42:05.874Z,98410.69
2022-08-29T12:44:42.825Z,98401.69
2022-08-29T12:47:13.269Z,98396.31
2022-08-29T12:49:53.049Z,98397.66
2022-08-29T12:52:25.520Z,98398.94
2022-08-29T12:54:56.308Z,98395.22
2022-08-29T12:57:34.445Z,98395.94
2022-08-29T13:00:04.100Z,98390.47
2022-08-29T13:02:34.976Z,98389.56
2022-08-29T13:05:04.951Z,98392.38
2022-08-29T13:07:31.503Z,98396.66
2022-08-29T13:10:00.531Z,98393.81
2022-08-29T13:12:32.762Z,98391.53
2022-08-29T13:15:03.973Z,98388.66
2022-08-29T13:17:35.207Z,98380.50
2022-08-29T13:20:42.779Z,98381.38
2022-08-29T13:23:12.421Z,98383.25
2022-08-29T13:25:58.360Z,98379.53
2022-08-29T13:28:30.574Z,98380.66
2022-08-29T13:31:08.902Z,98371.59
2022-08-29T13:33:36.299Z,98381.06
2022-08-29T13:36:41.113Z,98370.59
2022-08-29T13:39:26.352Z,98379.59
2022-08-29T13:42:01.834Z,98374.47
2022-08-29T13:44:33.213Z,98373.53
2022-08-29T13:47:01.931Z,98372.72
2022-08-29T13:49:32.182Z,98378.34
2022-08-29T13:52:00.005Z,98370.59
2022-08-29T13:54:31.244Z,98373.97
2022-08-29T13:56:58.147Z,98367.88
2022-08-29T13:59:27.446Z,98368.50
2022-08-29T14:02:11.042Z,98355.97
2022-08-29T14:04:40.707Z,98359.97
2022-08-29T14:07:11.863Z,98357.41
2022-08-29T14:09:41.816Z,98348.06
2022-08-29T14:12:09.016Z,98343.22
2022-08-29T14:14:35.480Z,98344.03
2022-08-29T14:17:02.162Z,98348.97
2022-08-29T14:19:29.553Z,98341.59
2022-08-29T14:21:59.093Z,98335.94
2022-08-29T14:24:29.103Z,98340.00
2022-08-29T14:27:02.064Z,98336.28
2022-08-29T14:29:32.946Z,98333.38
2022-08-29T14:32:02.892Z,98326.53
2022-08-29T14:34:32.605Z,98323.78
2022-08-29T14:37:00.678Z,98323.59
2022-08-29T14:39:27.542Z,98317.66
2022-08-29T14:41:54.901Z,98328.25
2022-08-29T14:44:24.536Z,98328.28
2022-08-29T14:46:51.698Z,98327.50
2022-08-29T14:49:18.993Z,98308.31
2022-08-29T14:51:45.808Z,98319.44
2022-08-29T14:54:13.079Z,98316.88
2022-08-29T14:56:49.942Z,98312.19
2022-08-29T14:59:18.696Z,98313.63
2022-08-29T15:01:48.672Z,98312.19
2022-08-29T15:04:30.396Z,98313.69
2022-08-29T15:07:05.548Z,98311.91
2022-08-29T15:09:32.054Z,98320.94
2022-08-29T15:11:58.596Z,98311.59
2022-08-29T15:14:25.403Z,98316.19
2022-08-29T15:16:51.875Z,98316.97
2022-08-29T15:22:05.639Z,98303.69
2022-08-29T15:24:32.551Z,98305.56
2022-08-29T15:26:59.562Z,98304.97
2022-08-29T15:29:26.223Z,98300.25
2022-08-29T15:31:52.704Z,98298.53
2022-08-29T15:34:19.211Z,98302.25
2022-08-29T15:36:45.751Z,98306.09
2022-08-29T15:39:13.138Z,98297.56
2022-08-29T15:41:39.751Z,98307.75
2022-08-29T15:44:06.439Z,98313.16
2022-08-29T15:46:33.929Z,98285.63
2022-08-29T15:49:06.967Z,98302.03
2022-08-29T15:51:34.605Z,98294.06
2022-08-29T15:54:01.262Z,98295.47
2022-08-29T15:56:34.837Z,98281.56
2022-08-29T15:59:06.931Z,98288.56
2022-08-29T16:01:46.548Z,98298.16
2022-08-29T16:04:15.354Z,98292.47
2022-08-29T16:06:42.112Z,98275.06
2022-08-29T16:09:15.541Z,98281.72
2022-08-29T16:11:44.749Z,98284.44
2022-08-29T16:16:58.410Z,98285.16
2022-08-29T16:19:24.997Z,98283.06
2022-08-29T16:21:51.463Z,98280.91
2022-08-29T16:24:18.391Z,98273.78
2022-08-29T16:26:45.934Z,98286.97
2022-08-29T16:29:12.998Z,98292.31
2022-08-29T16:31:39.829Z,98283.13
2022-08-29T16:34:06.480Z,98281.38
2022-08-29T16:36:33.082Z,98282.72
2022-08-29T16:38:59.695Z,98288.16
2022-08-29T16:41:27.429Z,98267.78
2022-08-29T16:43:55.103Z,98254.19
2022-08-29T16:46:27.234Z,98279.44
2022-08-29T16:48:58.159Z,98266.63
2022-08-29T16:51:27.068Z,98277.19
2022-08-29T16:53:53.996Z,98270.88
2022-08-29T16:56:20.888Z,98271.41
2022-08-29T16:58:59.963Z,98281.06
2022-08-29T17:01:29.722Z,98268.63
2022-08-29T17:03:56.754Z,98271.84
2022-08-29T17:06:23.263Z,98273.06
2022-08-29T17:08:50.001Z,98280.13
2022-08-29T17:11:18.810Z,98285.56
2022-08-29T17:13:45.338Z,98285.97
2022-08-29T17:16:11.815Z,98280.81
2022-08-29T17:18:38.949Z,98280.59
2022-08-29T17:21:06.312Z,98290.13
2022-08-29T17:23:35.703Z,98279.66
2022-08-29T17:26:06.531Z,98284.78
2022-08-29T17:28:33.721Z,98290.22
2022-08-29T17:31:00.276Z,98285.69
2022-08-29T17:33:27.794Z,98275.97
2022-08-29T17:35:54.560Z,98280.44
2022-08-29T17:38:21.074Z,98270.28
2022-08-29T17:40:49.097Z,98285.69
2022-08-29T17:43:18.658Z,98288.13
2022-08-29T17:45:45.931Z,98295.75
2022-08-29T17:48:12.454Z,98294.56
2022-08-29T17:50:40.251Z,98296.78
2022-08-29T17:53:06.751Z,98291.72
2022-08-29T17:55:33.256Z,98290.31
2022-08-29T17:57:59.894Z,98279.84
2022-08-29T18:00:26.642Z,98287.00
2022-08-29T18:02:53.173Z,98296.59
2022-08-29T18:05:19.812Z,98307.47
2022-08-29T18:07:46.363Z,98305.63
2022-08-29T18:10:15.686Z,98301.59
2022-08-29T18:12:42.223Z,98299.63
2022-08-29T18:15:09.800Z,98307.06
2022-08-29T18:17:36.941Z,98300.22
2022-08-29T18:20:05.262Z,98305.50
2022-08-29T18:22:31.754Z,98301.75
2022-08-29T18:24:58.228Z,98303.06
2022-08-29T18:27:26.071Z,98305.88
2022-08-29T18:29:53.061Z,98310.56
2022-08-29T18:32:20.347Z,98293.63
2022-08-29T18:34:46.979Z,98308.16
2022-08-29T18:37:14.335Z,98306.47
2022-08-29T18:39:41.335Z,98318.31
2022-08-29T18:42:20.316Z,98313.88
2022-08-29T18:44:54.735Z,98316.56
2022-08-29T18:47:21.360Z,98315.59
2022-08-29T18:50:06.211Z,98320.31
2022-08-29T18:52:34.978Z,98324.66
2022-08-29T18:55:01.533Z,98321.19
2022-08-29T18:57:28.039Z,98327.34
2022-08-29T18:59:54.515Z,98335.75
2022-08-29T19:02:21.144Z,98333.16
2022-08-29T19:04:49.410Z,98341.56
2022-08-29T19:07:15.978Z,98345.06
2022-08-29T19:09:52.966Z,98340.47
2022-08-29T19:12:19.627Z,98347.38
2022-08-29T19:14:46.359Z,98353.97
2022-08-29T19:17:13.033Z,98340.63
2022-08-29T19:19:58.365Z,98350.38
2022-08-29T19:22:25.721Z,98342.38
2022-08-29T19:24:52.347Z,98312.94
2022-08-29T19:27:41.866Z,98363.34
2022-08-29T19:30:06.986Z,98338.31
2022-08-29T19:32:34.078Z,98363.41
2022-08-29T19:35:01.423Z,98373.00
2022-08-29T19:37:28.234Z,98365.59
2022-08-29T19:39:55.740Z,98359.13
2022-08-29T19:42:22.496Z,98352.78
2022-08-29T19:44:48.899Z,98348.97
2022-08-29T19:47:15.490Z,98359.69
2022-08-29T19:49:45.309Z,98361.34
2022-08-29T19:52:12.099Z,98365.53
2022-08-29T19:54:38.588Z,98370.72
2022-08-29T19:57:08.463Z,98376.50
2022-08-29T19:59:34.946Z,98373.50
2022-08-29T20:02:01.720Z,98375.78
2022-08-29T20:04:28.241Z,98303.53
2022-08-29T20:06:59.612Z,98375.41
2022-08-29T20:09:27.063Z,98376.66
2022-08-29T20:11:53.931Z,98377.69
2022-08-29T20:14:20.414Z,98375.84
2022-08-29T20:16:46.966Z,98388.50
2022-08-29T20:19:13.523Z,98384.47
2022-08-29T20:21:40.849Z,98381.22
2022-08-29T20:24:07.378Z,98386.91
2022-08-29T20:26:35.942Z,98384.19
2022-08-29T20:29:05.936Z,98380.94
2022-08-29T20:31:34.368Z,98390.97
2022-08-29T20:34:01.079Z,98390.47
2022-08-29T20:36:46.786Z,98385.88
2022-08-29T20:39:16.672Z,98385.91
2022-08-29T20:41:51.251Z,98391.38
2022-08-29T20:44:20.320Z,98376.97
2022-08-29T20:46:47.987Z,98403.47
2022-08-29T20:49:17.986Z,98397.94
2022-08-29T20:51:44.546Z,98399.88
2022-08-29T20:54:12.919Z,98400.97
2022-08-29T20:56:39.932Z,98398.81
2022-08-29T20:59:07.156Z,98413.19
2022-08-29T21:01:35.795Z,98410.28
2022-08-29T21:04:22.834Z,98403.84
2022-08-29T21:07:04.782Z,98394.34
2022-08-29T21:09:32.025Z,98411.97
2022-08-29T21:11:58.768Z,98409.53
2022-08-29T21:14:27.195Z,98409.31
2022-08-29T21:16:56.858Z,98410.91
2022-08-29T21:19:28.700Z,98419.03
2022-08-29T21:21:57.295Z,98402.56
2022-08-29T21:24:24.908Z,98420.94
2022-08-29T21:26:51.465Z,98392.56
2022-08-29T21:29:20.074Z,98410.69
2022-08-29T21:31:47.953Z,98410.38
2022-08-29T21:34:14.753Z,98414.47
2022-08-29T21:36:41.784Z,98410.69
2022-08-29T21:39:11.057Z,98418.50
2022-08-29T21:41:41.520Z,98415.00
2022-08-29T21:44:09.036Z,98413.09
2022-08-29T21:46:40.151Z,98407.97
2022-08-29T21:49:06.984Z,98415.53
2022-08-29T21:51:34.786Z,98414.72
2022-08-29T21:54:01.941Z,98420.94
2022-08-29T21:56:31.362Z,98415.25
2022-08-29T21:58:58.561Z,98414.44
2022-08-29T22:01:30.051Z,98424.41
2022-08-29T22:03:58.799Z,98399.00
2022-08-29T22:06:27.732Z,98412.25
2022-08-29T22:08:54.936Z,98402.22
2022-08-29T22:11:25.378Z,98381.16
2022-08-29T22:14:05.606Z,98412.47
2022-08-29T22:16:32.205Z,98389.97
2022-08-29T22:19:06.688Z,98411.31
2022-08-29T22:21:39.812Z,98425.81
2022-08-29T22:24:07.357Z,98420.44
2022-08-29T22:26:34.927Z,98406.09
2022-08-29T22:29:02.033Z,98418.00
2022-08-29T22:31:28.616Z,98420.44
2022-08-29T22:33:55.163Z,98412.03
2022-08-29T22:36:21.725Z,98422.53
2022-08-29T22:38:49.588Z,98424.31
2022-08-29T22:41:22.891Z,98419.31
2022-08-29T22:44:04.706Z,98420.25
2022-08-29T22:46:37.692Z,98417.63
2022-08-29T22:49:04.282Z,98414.13
2022-08-29T22:51:30.705Z,98418.00
2022-08-29T22:54:16.178Z,98410.13
2022-08-29T22:56:44.974Z,98403.78
2022-08-29T22:59:12.905Z,98409.97
2022-08-29T23:01:43.512Z,98419.56
2022-08-29T23:04:10.949Z,98400.19
2022-08-29T23:06:37.491Z,98414.28
2022-08-29T23:09:05.087Z,98406.00
2022-08-29T23:11:31.524Z,98408.44
2022-08-29T23:13:58.101Z,98405.13
2022-08-29T23:16:25.645Z,98400.31
2022-08-29T23:18:52.146Z,98401.06
2022-08-29T23:21:19.834Z,98316.69
2022-08-29T23:23:46.583Z,98400.03
2022-08-29T23:26:13.169Z,98402.69
2022-08-29T23:28:40.284Z,98408.13
2022-08-29T23:31:06.987Z,98403.03
2022-08-29T23:33:33.586Z,98403.03
2022-08-29T23:36:00.051Z,98413.00
2022-08-29T23:38:26.683Z,98408.56
2022-08-29T23:40:57.184Z,98409.84
2022-08-29T23:43:24.686Z,98402.78
2022-08-29T23:45:51.789Z,98411.13
2022-08-29T23:48:18.389Z,98412.25
2022-08-29T23:50:50.906Z,98412.59
2022-08-29T23:53:17.662Z,98413.00
2022-08-29T23:55:44.511Z,98390.69
2022-08-29T23:58:11.085Z,98420.56
